sensor_id;sensor_type;location;lat;lon;timestamp;temperature;humidity
8888;DHT22;4480;52.370;9.748;2024-02-21T00:01:33;8.40;99.90
8888;DHT22;4480;52.370;9.748;2024-02-21T00:03:59;8.40;99.90
8888;DHT22;4480;52.370;9.748;2024-02-21T00:06:26;8.40;99.90
8888;DHT22;4480;52.370;9.748;2024-02-21T00:08:53;8.40;99.90
8888;DHT22;4480;52.370;9.748;2024-02-21T00:11:21;8.40;99.90
8888;DHT22;4480;52.370;9.748;2024-02-21T00:13:48;8.40;99.90
8888;DHT22;4480;52.370;9.748;2024-02-21T00:16:16;8.40;99.90
8888;DHT22;4480;52.370;9.748;2024-02-21T00:18:43;8.40;99.90
8888;DHT22;4480;52.370;9.748;2024-02-21T00:21:09;8.40;99.90
8888;DHT22;4480;52.370;9.748;2024-02-21T00:23:40;8.40;99.90
8888;DHT22;4480;52.370;9.748;2024-02-21T00:26:07;8.40;99.90
8888;DHT22;4480;52.370;9.748;2024-02-21T00:28:35;8.40;99.90
8888;DHT22;4480;52.370;9.748;2024-02-21T00:31:02;8.40;99.90
8888;DHT22;4480;52.370;9.748;2024-02-21T00:33:29;8.40;99.90
8888;DHT22;4480;52.370;9.748;2024-02-21T00:35:55;8.50;99.90
8888;DHT22;4480;52.370;9.748;2024-02-21T00:38:22;8.40;99.90
8888;DHT22;4480;52.370;9.748;2024-02-21T00:40:49;8.40;99.90
8888;DHT22;4480;52.370;9.748;2024-02-21T00:43:16;8.40;99.90
8888;DHT22;4480;52.370;9.748;2024-02-21T00:45:44;8.40;99.90
8888;DHT22;4480;52.370;9.748;2024-02-21T00:48:11;8.40;99.90
8888;DHT22;4480;52.370;9.748;2024-02-21T00:50:38;8.50;99.90
8888;DHT22;4480;52.370;9.748;2024-02-21T00:53:04;8.50;99.90
8888;DHT22;4480;52.370;9.748;2024-02-21T00:55:31;8.50;99.90
8888;DHT22;4480;52.370;9.748;2024-02-21T00:57:58;8.50;99.90
8888;DHT22;4480;52.370;9.748;2024-02-21T01:00:25;8.60;99.90
8888;DHT22;4480;52.370;9.748;2024-02-21T01:02:53;8.60;99.90
8888;DHT22;4480;52.370;9.748;2024-02-21T01:05:20;8.60;99.90
8888;DHT22;4480;52.370;9.748;2024-02-21T01:07:48;8.60;99.90
8888;DHT22;4480;52.370;9.748;2024-02-21T01:10:15;8.60;99.90
8888;DHT22;4480;52.370;9.748;2024-02-21T01:12:42;8.70;99.90
8888;DHT22;4480;52.370;9.748;2024-02-21T01:15:09;8.60;99.90
8888;DHT22;4480;52.370;9.748;2024-02-21T01:17:36;8.70;99.90
8888;DHT22;4480;52.370;9.748;2024-02-21T01:20:05;8.70;99.90
8888;DHT22;4480;52.370;9.748;2024-02-21T01:22:32;8.70;99.90
8888;DHT22;4480;52.370;9.748;2024-02-21T01:24:59;8.70;99.90
8888;DHT22;4480;52.370;9.748;2024-02-21T01:27:26;8.70;99.90
8888;DHT22;4480;52.370;9.748;2024-02-21T01:29:53;8.70;99.90
8888;DHT22;4480;52.370;9.748;2024-02-21T01:32:20;8.80;99.90
8888;DHT22;4480;52.370;9.748;2024-02-21T01:34:47;8.80;99.90
8888;DHT22;4480;52.370;9.748;2024-02-21T01:37:15;8.80;99.90
8888;DHT22;4480;52.370;9.748;2024-02-21T01:39:42;8.80;99.90
8888;DHT22;4480;52.370;9.748;2024-02-21T01:42:09;8.80;99.90
8888;DHT22;4480;52.370;9.748;2024-02-21T01:44:35;8.80;99.90
8888;DHT22;4480;52.370;9.748;2024-02-21T01:47:03;8.80;99.90
8888;DHT22;4480;52.370;9.748;2024-02-21T01:49:30;8.80;99.90
8888;DHT22;4480;52.370;9.748;2024-02-21T01:51:57;8.90;99.90
8888;DHT22;4480;52.370;9.748;2024-02-21T01:54:26;8.90;99.90
8888;DHT22;4480;52.370;9.748;2024-02-21T01:56:54;8.90;99.90
8888;DHT22;4480;52.370;9.748;2024-02-21T01:59:21;8.90;99.90
8888;DHT22;4480;52.370;9.748;2024-02-21T02:01:48;8.90;99.90
8888;DHT22;4480;52.370;9.748;2024-02-21T02:04:16;8.90;99.90
8888;DHT22;4480;52.370;9.748;2024-02-21T02:06:43;8.90;99.90
8888;DHT22;4480;52.370;9.748;2024-02-21T02:09:10;8.90;99.90
8888;DHT22;4480;52.370;9.748;2024-02-21T02:11:38;8.90;99.90
8888;DHT22;4480;52.370;9.748;2024-02-21T02:14:05;8.90;99.90
8888;DHT22;4480;52.370;9.748;2024-02-21T02:16:32;8.90;99.90
8888;DHT22;4480;52.370;9.748;2024-02-21T02:18:59;8.90;99.90
8888;DHT22;4480;52.370;9.748;2024-02-21T02:21:29;8.90;99.90
8888;DHT22;4480;52.370;9.748;2024-02-21T02:23:59;8.90;99.90
8888;DHT22;4480;52.370;9.748;2024-02-21T02:26:26;8.90;99.90
8888;DHT22;4480;52.370;9.748;2024-02-21T02:28:53;8.90;99.90
8888;DHT22;4480;52.370;9.748;2024-02-21T02:31:20;8.90;99.90
8888;DHT22;4480;52.370;9.748;2024-02-21T02:33:47;8.90;99.90
8888;DHT22;4480;52.370;9.748;2024-02-21T02:36:14;9.00;99.90
8888;DHT22;4480;52.370;9.748;2024-02-21T02:38:41;9.00;99.90
8888;DHT22;4480;52.370;9.748;2024-02-21T02:41:09;9.00;99.90
8888;DHT22;4480;52.370;9.748;2024-02-21T02:43:36;9.00;99.90
8888;DHT22;4480;52.370;9.748;2024-02-21T02:46:03;9.00;99.90
8888;DHT22;4480;52.370;9.748;2024-02-21T02:48:30;9.00;99.90
8888;DHT22;4480;52.370;9.748;2024-02-21T02:50:57;9.00;99.90
8888;DHT22;4480;52.370;9.748;2024-02-21T02:53:23;9.00;99.90
8888;DHT22;4480;52.370;9.748;2024-02-21T02:55:50;9.00;99.90
8888;DHT22;4480;52.370;9.748;2024-02-21T02:58:18;9.00;99.90
8888;DHT22;4480;52.370;9.748;2024-02-21T03:00:45;9.00;99.90
8888;DHT22;4480;52.370;9.748;2024-02-21T03:03:12;9.00;99.90
8888;DHT22;4480;52.370;9.748;2024-02-21T03:05:38;9.00;99.90
8888;DHT22;4480;52.370;9.748;2024-02-21T03:08:06;9.00;99.90
8888;DHT22;4480;52.370;9.748;2024-02-21T03:10:33;9.00;99.90
8888;DHT22;4480;52.370;9.748;2024-02-21T03:13:00;9.00;99.90
8888;DHT22;4480;52.370;9.748;2024-02-21T03:15:28;9.00;99.90
8888;DHT22;4480;52.370;9.748;2024-02-21T03:17:55;9.00;99.90
8888;DHT22;4480;52.370;9.748;2024-02-21T03:20:22;9.00;99.90
8888;DHT22;4480;52.370;9.748;2024-02-21T03:22:49;9.00;99.90
8888;DHT22;4480;52.370;9.748;2024-02-21T03:25:15;9.00;99.90
8888;DHT22;4480;52.370;9.748;2024-02-21T03:27:42;9.00;99.90
8888;DHT22;4480;52.370;9.748;2024-02-21T03:30:09;9.00;99.90
8888;DHT22;4480;52.370;9.748;2024-02-21T03:32:39;9.00;99.90
8888;DHT22;4480;52.370;9.748;2024-02-21T03:35:06;9.00;99.90
8888;DHT22;4480;52.370;9.748;2024-02-21T03:37:33;9.00;99.90
8888;DHT22;4480;52.370;9.748;2024-02-21T03:40:00;9.00;99.90
8888;DHT22;4480;52.370;9.748;2024-02-21T03:42:27;9.00;99.90
8888;DHT22;4480;52.370;9.748;2024-02-21T03:44:55;9.00;99.90
8888;DHT22;4480;52.370;9.748;2024-02-21T03:47:22;9.00;99.90
8888;DHT22;4480;52.370;9.748;2024-02-21T03:49:50;9.00;99.90
8888;DHT22;4480;52.370;9.748;2024-02-21T03:52:17;9.00;99.90
8888;DHT22;4480;52.370;9.748;2024-02-21T03:54:44;9.00;99.90
8888;DHT22;4480;52.370;9.748;2024-02-21T03:57:11;9.00;99.90
8888;DHT22;4480;52.370;9.748;2024-02-21T03:59:37;9.00;99.90
8888;DHT22;4480;52.370;9.748;2024-02-21T04:02:05;9.00;99.90
8888;DHT22;4480;52.370;9.748;2024-02-21T04:04:34;9.00;99.90
8888;DHT22;4480;52.370;9.748;2024-02-21T04:07:02;9.00;99.90
8888;DHT22;4480;52.370;9.748;2024-02-21T04:09:31;9.00;99.90
8888;DHT22;4480;52.370;9.748;2024-02-21T04:13:14;9.10;99.90
8888;DHT22;4480;52.370;9.748;2024-02-21T04:15:40;9.00;99.90
8888;DHT22;4480;52.370;9.748;2024-02-21T04:18:07;9.10;99.90
8888;DHT22;4480;52.370;9.748;2024-02-21T04:20:34;9.10;99.90
8888;DHT22;4480;52.370;9.748;2024-02-21T04:23:01;9.10;99.90
8888;DHT22;4480;52.370;9.748;2024-02-21T04:25:28;9.10;99.90
8888;DHT22;4480;52.370;9.748;2024-02-21T04:27:54;9.10;99.90
8888;DHT22;4480;52.370;9.748;2024-02-21T04:30:23;9.10;99.90
8888;DHT22;4480;52.370;9.748;2024-02-21T04:32:49;9.10;99.90
8888;DHT22;4480;52.370;9.748;2024-02-21T04:35:16;9.10;99.90
8888;DHT22;4480;52.370;9.748;2024-02-21T04:37:43;9.10;99.90
8888;DHT22;4480;52.370;9.748;2024-02-21T04:40:10;9.10;99.90
8888;DHT22;4480;52.370;9.748;2024-02-21T04:42:37;9.10;99.90
8888;DHT22;4480;52.370;9.748;2024-02-21T04:45:05;9.10;99.90
8888;DHT22;4480;52.370;9.748;2024-02-21T04:47:33;9.10;99.90
8888;DHT22;4480;52.370;9.748;2024-02-21T04:50:00;9.10;99.90
8888;DHT22;4480;52.370;9.748;2024-02-21T04:52:27;9.10;99.90
8888;DHT22;4480;52.370;9.748;2024-02-21T04:54:54;9.10;99.90
8888;DHT22;4480;52.370;9.748;2024-02-21T04:57:21;9.10;99.90
8888;DHT22;4480;52.370;9.748;2024-02-21T04:59:48;9.10;99.90
8888;DHT22;4480;52.370;9.748;2024-02-21T05:02:15;9.10;99.90
8888;DHT22;4480;52.370;9.748;2024-02-21T05:04:43;9.10;99.90
8888;DHT22;4480;52.370;9.748;2024-02-21T05:07:10;9.10;99.90
8888;DHT22;4480;52.370;9.748;2024-02-21T05:09:37;9.10;99.90
8888;DHT22;4480;52.370;9.748;2024-02-21T05:12:04;9.10;99.90
8888;DHT22;4480;52.370;9.748;2024-02-21T05:14:31;9.10;99.90
8888;DHT22;4480;52.370;9.748;2024-02-21T05:16:58;9.10;99.90
8888;DHT22;4480;52.370;9.748;2024-02-21T05:19:25;9.00;99.90
8888;DHT22;4480;52.370;9.748;2024-02-21T05:21:53;9.10;99.90
8888;DHT22;4480;52.370;9.748;2024-02-21T05:24:20;9.00;99.90
8888;DHT22;4480;52.370;9.748;2024-02-21T05:26:46;9.00;99.90
8888;DHT22;4480;52.370;9.748;2024-02-21T05:29:13;9.00;99.90
8888;DHT22;4480;52.370;9.748;2024-02-21T05:31:55;9.10;99.90
8888;DHT22;4480;52.370;9.748;2024-02-21T05:34:22;9.00;99.90
8888;DHT22;4480;52.370;9.748;2024-02-21T05:36:49;9.00;99.90
8888;DHT22;4480;52.370;9.748;2024-02-21T05:39:17;9.00;99.90
8888;DHT22;4480;52.370;9.748;2024-02-21T05:41:44;9.00;99.90
8888;DHT22;4480;52.370;9.748;2024-02-21T05:44:11;9.00;99.90
8888;DHT22;4480;52.370;9.748;2024-02-21T05:46:38;9.00;99.90
8888;DHT22;4480;52.370;9.748;2024-02-21T05:49:05;9.00;99.90
8888;DHT22;4480;52.370;9.748;2024-02-21T05:51:32;9.00;99.90
8888;DHT22;4480;52.370;9.748;2024-02-21T05:53:59;9.00;99.90
8888;DHT22;4480;52.370;9.748;2024-02-21T05:56:27;9.00;99.90
8888;DHT22;4480;52.370;9.748;2024-02-21T05:58:54;9.00;99.90
8888;DHT22;4480;52.370;9.748;2024-02-21T06:01:22;9.00;99.90
8888;DHT22;4480;52.370;9.748;2024-02-21T06:03:48;9.00;99.90
8888;DHT22;4480;52.370;9.748;2024-02-21T06:06:15;9.00;99.90
8888;DHT22;4480;52.370;9.748;2024-02-21T06:08:42;9.00;99.90
8888;DHT22;4480;52.370;9.748;2024-02-21T06:11:09;8.90;99.90
8888;DHT22;4480;52.370;9.748;2024-02-21T06:13:39;8.90;99.90
8888;DHT22;4480;52.370;9.748;2024-02-21T06:16:07;8.90;99.90
8888;DHT22;4480;52.370;9.748;2024-02-21T06:18:35;8.90;99.90
8888;DHT22;4480;52.370;9.748;2024-02-21T06:21:03;8.90;99.90
8888;DHT22;4480;52.370;9.748;2024-02-21T06:23:30;8.90;99.90
8888;DHT22;4480;52.370;9.748;2024-02-21T06:25:57;8.90;99.90
8888;DHT22;4480;52.370;9.748;2024-02-21T06:28:24;8.90;99.90
8888;DHT22;4480;52.370;9.748;2024-02-21T06:30:52;8.90;99.90
8888;DHT22;4480;52.370;9.748;2024-02-21T06:33:18;8.90;99.90
8888;DHT22;4480;52.370;9.748;2024-02-21T06:35:48;8.90;99.90
8888;DHT22;4480;52.370;9.748;2024-02-21T06:38:17;9.00;99.90
8888;DHT22;4480;52.370;9.748;2024-02-21T06:40:44;9.00;99.90
8888;DHT22;4480;52.370;9.748;2024-02-21T06:43:16;9.00;99.90
8888;DHT22;4480;52.370;9.748;2024-02-21T06:45:43;9.00;99.90
8888;DHT22;4480;52.370;9.748;2024-02-21T06:48:14;9.00;99.90
8888;DHT22;4480;52.370;9.748;2024-02-21T06:50:41;9.00;99.90
8888;DHT22;4480;52.370;9.748;2024-02-21T06:53:07;9.00;99.90
8888;DHT22;4480;52.370;9.748;2024-02-21T06:55:34;9.00;99.90
8888;DHT22;4480;52.370;9.748;2024-02-21T06:58:01;9.00;99.90
8888;DHT22;4480;52.370;9.748;2024-02-21T07:00:28;9.00;99.90
8888;DHT22;4480;52.370;9.748;2024-02-21T07:02:55;9.00;99.90
8888;DHT22;4480;52.370;9.748;2024-02-21T07:05:23;9.00;99.90
8888;DHT22;4480;52.370;9.748;2024-02-21T07:07:50;8.90;99.90
8888;DHT22;4480;52.370;9.748;2024-02-21T07:10:16;8.90;99.90
8888;DHT22;4480;52.370;9.748;2024-02-21T07:12:43;8.90;99.90
8888;DHT22;4480;52.370;9.748;2024-02-21T07:15:10;9.00;99.90
8888;DHT22;4480;52.370;9.748;2024-02-21T07:17:37;9.00;99.90
8888;DHT22;4480;52.370;9.748;2024-02-21T07:20:04;9.00;99.90
8888;DHT22;4480;52.370;9.748;2024-02-21T07:22:32;9.00;99.90
8888;DHT22;4480;52.370;9.748;2024-02-21T07:24:59;9.00;99.90
8888;DHT22;4480;52.370;9.748;2024-02-21T07:27:26;9.00;99.90
8888;DHT22;4480;52.370;9.748;2024-02-21T07:29:56;9.10;99.90
8888;DHT22;4480;52.370;9.748;2024-02-21T07:32:23;9.10;99.90
8888;DHT22;4480;52.370;9.748;2024-02-21T07:34:49;9.10;99.90
8888;DHT22;4480;52.370;9.748;2024-02-21T07:37:16;9.10;99.90
8888;DHT22;4480;52.370;9.748;2024-02-21T07:39:44;9.10;99.90
8888;DHT22;4480;52.370;9.748;2024-02-21T07:42:11;9.20;99.90
8888;DHT22;4480;52.370;9.748;2024-02-21T07:44:38;9.20;99.90
8888;DHT22;4480;52.370;9.748;2024-02-21T07:47:05;9.20;99.90
8888;DHT22;4480;52.370;9.748;2024-02-21T07:49:33;9.30;99.90
8888;DHT22;4480;52.370;9.748;2024-02-21T07:52:00;9.30;99.90
8888;DHT22;4480;52.370;9.748;2024-02-21T07:54:27;9.30;99.90
8888;DHT22;4480;52.370;9.748;2024-02-21T07:56:55;9.30;99.90
8888;DHT22;4480;52.370;9.748;2024-02-21T07:59:22;9.30;99.90
8888;DHT22;4480;52.370;9.748;2024-02-21T08:01:49;9.30;99.90
8888;DHT22;4480;52.370;9.748;2024-02-21T08:04:16;9.30;99.90
8888;DHT22;4480;52.370;9.748;2024-02-21T08:06:42;9.40;99.90
8888;DHT22;4480;52.370;9.748;2024-02-21T08:09:10;9.40;99.90
8888;DHT22;4480;52.370;9.748;2024-02-21T08:11:37;9.40;99.90
8888;DHT22;4480;52.370;9.748;2024-02-21T08:14:06;9.50;99.90
8888;DHT22;4480;52.370;9.748;2024-02-21T08:16:33;9.50;99.90
8888;DHT22;4480;52.370;9.748;2024-02-21T08:19:00;9.50;99.90
8888;DHT22;4480;52.370;9.748;2024-02-21T08:21:28;9.60;99.90
8888;DHT22;4480;52.370;9.748;2024-02-21T08:23:55;9.60;99.90
8888;DHT22;4480;52.370;9.748;2024-02-21T08:26:22;9.60;99.90
8888;DHT22;4480;52.370;9.748;2024-02-21T08:28:48;9.70;99.90
8888;DHT22;4480;52.370;9.748;2024-02-21T08:31:20;9.70;99.90
8888;DHT22;4480;52.370;9.748;2024-02-21T08:33:48;9.70;99.90
8888;DHT22;4480;52.370;9.748;2024-02-21T08:36:17;9.70;99.90
8888;DHT22;4480;52.370;9.748;2024-02-21T08:38:45;9.80;99.90
8888;DHT22;4480;52.370;9.748;2024-02-21T08:41:12;9.80;99.90
8888;DHT22;4480;52.370;9.748;2024-02-21T08:43:38;9.80;99.90
8888;DHT22;4480;52.370;9.748;2024-02-21T08:46:05;9.90;99.90
8888;DHT22;4480;52.370;9.748;2024-02-21T08:48:33;9.90;99.90
8888;DHT22;4480;52.370;9.748;2024-02-21T08:51:00;10.00;99.90
8888;DHT22;4480;52.370;9.748;2024-02-21T08:53:27;10.10;99.90
8888;DHT22;4480;52.370;9.748;2024-02-21T08:55:54;10.10;99.90
8888;DHT22;4480;52.370;9.748;2024-02-21T08:58:20;10.10;99.90
8888;DHT22;4480;52.370;9.748;2024-02-21T09:00:49;10.20;99.90
8888;DHT22;4480;52.370;9.748;2024-02-21T09:03:16;10.20;99.90
8888;DHT22;4480;52.370;9.748;2024-02-21T09:05:46;10.30;99.90
8888;DHT22;4480;52.370;9.748;2024-02-21T09:08:13;10.30;99.90
8888;DHT22;4480;52.370;9.748;2024-02-21T09:10:40;10.40;99.90
8888;DHT22;4480;52.370;9.748;2024-02-21T09:13:07;10.50;99.90
8888;DHT22;4480;52.370;9.748;2024-02-21T09:15:34;10.50;99.90
8888;DHT22;4480;52.370;9.748;2024-02-21T09:18:01;10.60;99.90
8888;DHT22;4480;52.370;9.748;2024-02-21T09:20:28;10.70;99.90
8888;DHT22;4480;52.370;9.748;2024-02-21T09:22:56;10.70;99.90
8888;DHT22;4480;52.370;9.748;2024-02-21T09:25:23;10.80;99.90
8888;DHT22;4480;52.370;9.748;2024-02-21T09:27:50;10.80;99.90
8888;DHT22;4480;52.370;9.748;2024-02-21T09:30:17;10.90;99.90
8888;DHT22;4480;52.370;9.748;2024-02-21T09:32:44;10.90;99.90
8888;DHT22;4480;52.370;9.748;2024-02-21T09:35:11;11.00;99.90
8888;DHT22;4480;52.370;9.748;2024-02-21T09:37:38;11.10;99.90
8888;DHT22;4480;52.370;9.748;2024-02-21T09:40:07;11.20;99.90
8888;DHT22;4480;52.370;9.748;2024-02-21T09:42:37;11.20;99.90
8888;DHT22;4480;52.370;9.748;2024-02-21T09:45:07;11.30;99.90
8888;DHT22;4480;52.370;9.748;2024-02-21T09:47:54;11.30;99.90
8888;DHT22;4480;52.370;9.748;2024-02-21T09:50:26;11.40;99.90
8888;DHT22;4480;52.370;9.748;2024-02-21T09:52:54;11.40;99.90
8888;DHT22;4480;52.370;9.748;2024-02-21T09:55:24;11.40;99.90
8888;DHT22;4480;52.370;9.748;2024-02-21T09:57:53;11.40;99.90
8888;DHT22;4480;52.370;9.748;2024-02-21T10:00:20;11.40;99.90
8888;DHT22;4480;52.370;9.748;2024-02-21T10:02:48;11.50;99.90
8888;DHT22;4480;52.370;9.748;2024-02-21T10:05:15;11.60;99.90
8888;DHT22;4480;52.370;9.748;2024-02-21T10:07:43;11.60;99.90
8888;DHT22;4480;52.370;9.748;2024-02-21T10:10:10;11.60;99.90
8888;DHT22;4480;52.370;9.748;2024-02-21T10:12:48;11.60;99.90
8888;DHT22;4480;52.370;9.748;2024-02-21T10:15:19;11.60;99.90
8888;DHT22;4480;52.370;9.748;2024-02-21T10:17:46;11.60;99.90
8888;DHT22;4480;52.370;9.748;2024-02-21T10:20:13;11.60;99.40
8888;DHT22;4480;52.370;9.748;2024-02-21T10:22:41;11.50;98.80
8888;DHT22;4480;52.370;9.748;2024-02-21T10:25:08;11.50;99.20
8888;DHT22;4480;52.370;9.748;2024-02-21T10:27:37;11.60;99.10
8888;DHT22;4480;52.370;9.748;2024-02-21T10:30:06;11.60;99.10
8888;DHT22;4480;52.370;9.748;2024-02-21T10:32:33;11.70;98.20
8888;DHT22;4480;52.370;9.748;2024-02-21T10:35:04;11.70;98.10
8888;DHT22;4480;52.370;9.748;2024-02-21T10:37:31;11.70;97.90
8888;DHT22;4480;52.370;9.748;2024-02-21T10:39:58;11.70;97.50
8888;DHT22;4480;52.370;9.748;2024-02-21T10:42:29;11.70;97.00
8888;DHT22;4480;52.370;9.748;2024-02-21T10:45:01;11.80;96.60
8888;DHT22;4480;52.370;9.748;2024-02-21T10:47:31;11.80;96.30
8888;DHT22;4480;52.370;9.748;2024-02-21T10:50:03;11.90;96.00
8888;DHT22;4480;52.370;9.748;2024-02-21T10:52:38;12.00;95.40
8888;DHT22;4480;52.370;9.748;2024-02-21T10:55:11;12.10;95.20
8888;DHT22;4480;52.370;9.748;2024-02-21T10:57:43;12.20;94.70
8888;DHT22;4480;52.370;9.748;2024-02-21T11:00:13;12.20;93.60
8888;DHT22;4480;52.370;9.748;2024-02-21T11:02:41;12.20;93.50
8888;DHT22;4480;52.370;9.748;2024-02-21T11:05:08;12.30;93.10
8888;DHT22;4480;52.370;9.748;2024-02-21T11:07:37;12.30;92.30
8888;DHT22;4480;52.370;9.748;2024-02-21T11:10:04;12.30;92.10
8888;DHT22;4480;52.370;9.748;2024-02-21T11:12:33;12.30;91.50
8888;DHT22;4480;52.370;9.748;2024-02-21T11:15:06;12.30;91.00
8888;DHT22;4480;52.370;9.748;2024-02-21T11:17:34;12.30;90.80
8888;DHT22;4480;52.370;9.748;2024-02-21T11:20:11;12.40;90.70
8888;DHT22;4480;52.370;9.748;2024-02-21T11:22:41;12.40;90.30
8888;DHT22;4480;52.370;9.748;2024-02-21T11:25:09;12.50;89.80
8888;DHT22;4480;52.370;9.748;2024-02-21T11:27:37;12.40;88.10
8888;DHT22;4480;52.370;9.748;2024-02-21T11:30:05;12.40;88.50
8888;DHT22;4480;52.370;9.748;2024-02-21T11:32:33;12.40;87.90
8888;DHT22;4480;52.370;9.748;2024-02-21T11:35:01;12.40;85.40
8888;DHT22;4480;52.370;9.748;2024-02-21T11:37:30;12.40;84.70
8888;DHT22;4480;52.370;9.748;2024-02-21T11:39:59;12.40;83.40
8888;DHT22;4480;52.370;9.748;2024-02-21T11:42:26;12.40;83.40
8888;DHT22;4480;52.370;9.748;2024-02-21T11:44:53;12.40;82.80
8888;DHT22;4480;52.370;9.748;2024-02-21T11:47:22;12.40;82.20
8888;DHT22;4480;52.370;9.748;2024-02-21T11:49:50;12.40;82.50
8888;DHT22;4480;52.370;9.748;2024-02-21T11:52:21;12.30;82.70
8888;DHT22;4480;52.370;9.748;2024-02-21T11:54:50;12.40;82.70
8888;DHT22;4480;52.370;9.748;2024-02-21T11:57:18;12.40;82.40
8888;DHT22;4480;52.370;9.748;2024-02-21T11:59:45;12.40;82.20
8888;DHT22;4480;52.370;9.748;2024-02-21T12:02:12;12.40;81.80
8888;DHT22;4480;52.370;9.748;2024-02-21T12:04:39;12.40;81.80
8888;DHT22;4480;52.370;9.748;2024-02-21T12:07:07;12.50;81.50
8888;DHT22;4480;52.370;9.748;2024-02-21T12:09:34;12.50;81.30
8888;DHT22;4480;52.370;9.748;2024-02-21T12:12:02;12.60;80.90
8888;DHT22;4480;52.370;9.748;2024-02-21T12:14:31;12.60;80.20
8888;DHT22;4480;52.370;9.748;2024-02-21T12:16:59;12.70;79.40
8888;DHT22;4480;52.370;9.748;2024-02-21T12:19:26;12.80;80.10
8888;DHT22;4480;52.370;9.748;2024-02-21T12:21:55;12.90;78.50
8888;DHT22;4480;52.370;9.748;2024-02-21T12:24:26;12.90;76.30
8888;DHT22;4480;52.370;9.748;2024-02-21T12:26:53;12.80;75.50
8888;DHT22;4480;52.370;9.748;2024-02-21T12:29:20;12.80;75.80
8888;DHT22;4480;52.370;9.748;2024-02-21T12:31:47;12.80;75.80
8888;DHT22;4480;52.370;9.748;2024-02-21T12:34:15;12.80;74.80
8888;DHT22;4480;52.370;9.748;2024-02-21T12:36:42;12.80;75.00
8888;DHT22;4480;52.370;9.748;2024-02-21T12:39:09;12.90;74.20
8888;DHT22;4480;52.370;9.748;2024-02-21T12:41:38;12.90;73.50
8888;DHT22;4480;52.370;9.748;2024-02-21T12:44:06;12.90;73.20
8888;DHT22;4480;52.370;9.748;2024-02-21T12:46:33;12.90;72.90
8888;DHT22;4480;52.370;9.748;2024-02-21T12:49:00;13.00;72.70
8888;DHT22;4480;52.370;9.748;2024-02-21T12:51:27;13.00;72.20
8888;DHT22;4480;52.370;9.748;2024-02-21T12:53:54;13.00;71.60
8888;DHT22;4480;52.370;9.748;2024-02-21T12:56:21;13.00;71.20
8888;DHT22;4480;52.370;9.748;2024-02-21T12:58:49;13.00;71.10
8888;DHT22;4480;52.370;9.748;2024-02-21T13:01:16;13.00;71.00
8888;DHT22;4480;52.370;9.748;2024-02-21T13:03:42;13.00;71.00
8888;DHT22;4480;52.370;9.748;2024-02-21T13:06:09;13.00;70.60
8888;DHT22;4480;52.370;9.748;2024-02-21T13:08:36;13.00;70.60
8888;DHT22;4480;52.370;9.748;2024-02-21T13:11:03;13.00;70.90
8888;DHT22;4480;52.370;9.748;2024-02-21T13:13:30;13.10;70.80
8888;DHT22;4480;52.370;9.748;2024-02-21T13:15:59;13.10;70.50
8888;DHT22;4480;52.370;9.748;2024-02-21T13:18:26;13.00;70.20
8888;DHT22;4480;52.370;9.748;2024-02-21T13:20:53;13.00;70.60
8888;DHT22;4480;52.370;9.748;2024-02-21T13:23:19;13.00;70.80
8888;DHT22;4480;52.370;9.748;2024-02-21T13:25:47;13.00;71.30
8888;DHT22;4480;52.370;9.748;2024-02-21T13:28:14;13.10;71.20
8888;DHT22;4480;52.370;9.748;2024-02-21T13:30:42;13.10;71.10
8888;DHT22;4480;52.370;9.748;2024-02-21T13:33:10;13.00;70.90
8888;DHT22;4480;52.370;9.748;2024-02-21T13:35:37;12.90;71.20
8888;DHT22;4480;52.370;9.748;2024-02-21T13:38:04;12.90;71.40
8888;DHT22;4480;52.370;9.748;2024-02-21T13:40:31;12.90;72.30
8888;DHT22;4480;52.370;9.748;2024-02-21T13:42:58;12.90;71.60
8888;DHT22;4480;52.370;9.748;2024-02-21T13:45:24;12.80;71.60
8888;DHT22;4480;52.370;9.748;2024-02-21T13:47:51;12.90;71.80
8888;DHT22;4480;52.370;9.748;2024-02-21T13:50:21;12.90;72.10
8888;DHT22;4480;52.370;9.748;2024-02-21T13:52:48;12.90;71.60
8888;DHT22;4480;52.370;9.748;2024-02-21T13:55:15;12.90;71.50
8888;DHT22;4480;52.370;9.748;2024-02-21T13:57:42;12.80;71.80
8888;DHT22;4480;52.370;9.748;2024-02-21T14:00:09;12.80;71.90
8888;DHT22;4480;52.370;9.748;2024-02-21T14:02:36;12.90;72.00
8888;DHT22;4480;52.370;9.748;2024-02-21T14:05:04;12.80;71.80
8888;DHT22;4480;52.370;9.748;2024-02-21T14:07:33;12.80;71.60
8888;DHT22;4480;52.370;9.748;2024-02-21T14:10:00;12.70;71.50
8888;DHT22;4480;52.370;9.748;2024-02-21T14:12:27;12.70;72.00
8888;DHT22;4480;52.370;9.748;2024-02-21T14:14:53;12.70;72.20
8888;DHT22;4480;52.370;9.748;2024-02-21T14:17:22;12.80;72.30
8888;DHT22;4480;52.370;9.748;2024-02-21T14:19:50;12.70;72.10
8888;DHT22;4480;52.370;9.748;2024-02-21T14:22:17;12.70;72.30
8888;DHT22;4480;52.370;9.748;2024-02-21T14:24:45;12.60;72.30
8888;DHT22;4480;52.370;9.748;2024-02-21T14:27:12;12.40;72.50
8888;DHT22;4480;52.370;9.748;2024-02-21T14:29:39;12.40;73.10
8888;DHT22;4480;52.370;9.748;2024-02-21T14:32:06;12.40;73.40
8888;DHT22;4480;52.370;9.748;2024-02-21T14:34:35;12.40;73.40
8888;DHT22;4480;52.370;9.748;2024-02-21T14:37:02;12.40;73.70
8888;DHT22;4480;52.370;9.748;2024-02-21T14:39:29;12.40;74.30
8888;DHT22;4480;52.370;9.748;2024-02-21T14:41:59;12.40;74.50
8888;DHT22;4480;52.370;9.748;2024-02-21T14:44:25;12.50;75.00
8888;DHT22;4480;52.370;9.748;2024-02-21T14:46:52;12.50;75.10
8888;DHT22;4480;52.370;9.748;2024-02-21T14:49:19;12.60;76.10
8888;DHT22;4480;52.370;9.748;2024-02-21T14:51:46;12.60;75.80
8888;DHT22;4480;52.370;9.748;2024-02-21T14:54:13;12.60;76.40
8888;DHT22;4480;52.370;9.748;2024-02-21T14:56:39;12.60;76.90
8888;DHT22;4480;52.370;9.748;2024-02-21T14:59:08;12.50;77.50
8888;DHT22;4480;52.370;9.748;2024-02-21T15:01:36;12.50;78.20
8888;DHT22;4480;52.370;9.748;2024-02-21T15:04:04;12.30;78.70
8888;DHT22;4480;52.370;9.748;2024-02-21T15:06:31;12.20;80.10
8888;DHT22;4480;52.370;9.748;2024-02-21T15:08:58;12.10;81.90
8888;DHT22;4480;52.370;9.748;2024-02-21T15:11:25;12.00;83.20
8888;DHT22;4480;52.370;9.748;2024-02-21T15:13:52;11.90;84.50
8888;DHT22;4480;52.370;9.748;2024-02-21T15:16:20;11.90;86.60
8888;DHT22;4480;52.370;9.748;2024-02-21T15:18:46;11.90;88.20
8888;DHT22;4480;52.370;9.748;2024-02-21T15:21:13;11.90;89.60
8888;DHT22;4480;52.370;9.748;2024-02-21T15:23:40;11.90;90.00
8888;DHT22;4480;52.370;9.748;2024-02-21T15:26:07;11.90;90.60
8888;DHT22;4480;52.370;9.748;2024-02-21T15:28:34;11.90;91.00
8888;DHT22;4480;52.370;9.748;2024-02-21T15:31:01;11.90;91.30
8888;DHT22;4480;52.370;9.748;2024-02-21T15:33:30;11.80;91.60
8888;DHT22;4480;52.370;9.748;2024-02-21T15:35:57;11.70;91.60
8888;DHT22;4480;52.370;9.748;2024-02-21T15:38:24;11.70;92.60
8888;DHT22;4480;52.370;9.748;2024-02-21T15:40:50;11.60;93.20
8888;DHT22;4480;52.370;9.748;2024-02-21T15:43:17;11.60;93.50
8888;DHT22;4480;52.370;9.748;2024-02-21T15:45:44;11.50;94.20
8888;DHT22;4480;52.370;9.748;2024-02-21T15:48:14;11.40;94.70
8888;DHT22;4480;52.370;9.748;2024-02-21T15:50:42;11.40;94.80
8888;DHT22;4480;52.370;9.748;2024-02-21T15:53:14;11.30;95.60
8888;DHT22;4480;52.370;9.748;2024-02-21T15:55:41;11.20;96.10
8888;DHT22;4480;52.370;9.748;2024-02-21T15:58:07;11.10;96.60
8888;DHT22;4480;52.370;9.748;2024-02-21T16:00:34;11.00;97.10
8888;DHT22;4480;52.370;9.748;2024-02-21T16:03:01;11.00;98.00
8888;DHT22;4480;52.370;9.748;2024-02-21T16:05:28;10.90;98.50
8888;DHT22;4480;52.370;9.748;2024-02-21T16:07:57;10.90;98.80
8888;DHT22;4480;52.370;9.748;2024-02-21T16:10:24;10.80;99.10
8888;DHT22;4480;52.370;9.748;2024-02-21T16:12:51;10.70;99.50